createdAt,value
2019-03-21T00:03:27.548Z,17.40
2019-03-21T00:08:36.593Z,17.57
2019-03-21T00:13:45.473Z,18.17
2019-03-21T00:18:54.435Z,17.97
2019-03-21T00:24:03.326Z,18.31
2019-03-21T00:29:12.263Z,18.79
2019-03-21T00:34:21.135Z,17.99
2019-03-21T00:39:33.013Z,17.84
2019-03-21T00:44:38.419Z,18.35
2019-03-21T00:49:47.389Z,18.32
2019-03-21T00:54:56.353Z,18.33
2019-03-21T01:00:05.278Z,18.09
2019-03-21T01:05:14.155Z,18.03
2019-03-21T01:10:23.032Z,17.83
2019-03-21T01:15:31.911Z,17.90
2019-03-21T01:20:40.800Z,17.30
2019-03-21T01:25:49.686Z,17.15
2019-03-21T01:30:58.591Z,17.73
2019-03-21T01:36:07.486Z,17.63
2019-03-21T01:41:16.428Z,17.15
2019-03-21T01:46:25.291Z,16.92
2019-03-21T01:51:34.208Z,16.42
2019-03-21T01:56:43.116Z,17.23
2019-03-21T02:01:52.086Z,16.76
2019-03-21T02:07:00.971Z,17.60
2019-03-21T02:12:09.856Z,16.81
2019-03-21T02:17:18.732Z,17.01
2019-03-21T02:22:27.680Z,17.81
2019-03-21T02:27:36.594Z,17.16
2019-03-21T02:32:45.548Z,17.35
2019-03-21T02:37:54.457Z,17.35
2019-03-21T02:43:03.320Z,17.67
2019-03-21T02:48:12.205Z,17.89
2019-03-21T02:53:21.148Z,17.10
2019-03-21T02:58:30.035Z,17.40
2019-03-21T03:03:38.923Z,17.28
2019-03-21T03:08:47.813Z,17.02
2019-03-21T03:13:56.699Z,17.04
2019-03-21T03:19:05.576Z,16.90
2019-03-21T03:24:14.499Z,16.85
2019-03-21T03:29:23.419Z,17.15
2019-03-21T03:34:32.289Z,17.48
2019-03-21T03:39:41.180Z,16.79
2019-03-21T03:44:50.068Z,17.59
2019-03-21T03:49:58.931Z,18.06
2019-03-21T03:55:07.856Z,17.38
2019-03-21T04:00:16.756Z,17.19
2019-03-21T04:05:25.675Z,16.53
2019-03-21T04:10:34.554Z,16.90
2019-03-21T04:15:52.319Z,16.95
2019-03-21T04:20:51.838Z,16.62
2019-03-21T04:26:00.720Z,17.24
2019-03-21T04:31:09.610Z,17.15
2019-03-21T04:36:18.515Z,17.69
2019-03-21T04:41:27.430Z,17.61
2019-03-21T04:46:36.341Z,18.76
2019-03-21T04:51:45.188Z,18.58
2019-03-21T04:56:54.108Z,18.26
2019-03-21T05:02:02.999Z,19.05
2019-03-21T05:07:11.965Z,19.40
2019-03-21T05:12:20.873Z,19.55
2019-03-21T05:17:29.825Z,19.05
2019-03-21T05:22:38.712Z,20.22
2019-03-21T05:27:47.604Z,19.31
2019-03-21T05:32:56.480Z,19.65
2019-03-21T05:38:05.404Z,20.64
2019-03-21T05:43:14.289Z,19.22
2019-03-21T05:48:23.191Z,20.79
2019-03-21T05:53:32.063Z,21.05
2019-03-21T05:58:40.984Z,23.56
2019-03-21T06:03:49.838Z,24.20
2019-03-21T06:08:58.815Z,26.25
2019-03-21T06:14:07.709Z,29.81
2019-03-21T06:19:16.636Z,30.46
2019-03-21T06:24:25.531Z,30.32
2019-03-21T06:29:34.439Z,30.01
2019-03-21T06:34:43.318Z,28.58
2019-03-21T06:39:52.216Z,29.35
2019-03-21T06:45:01.106Z,29.62
2019-03-21T06:50:10.052Z,29.67
2019-03-21T06:55:18.935Z,29.90
2019-03-21T07:00:28.005Z,31.62
2019-03-21T07:05:36.908Z,30.68
2019-03-21T07:10:45.946Z,31.20
2019-03-21T07:15:54.863Z,31.42
2019-03-21T07:21:03.812Z,32.55
2019-03-21T07:26:12.680Z,31.56
2019-03-21T07:31:21.587Z,33.14
2019-03-21T07:36:30.449Z,32.23
2019-03-21T07:41:39.390Z,33.48
2019-03-21T07:46:48.272Z,31.80
2019-03-21T07:51:57.157Z,24.66
2019-03-21T07:57:06.046Z,25.24
2019-03-21T08:02:15.200Z,25.55
2019-03-21T08:07:24.063Z,26.23
2019-03-21T08:12:32.993Z,26.70
2019-03-21T08:17:41.921Z,25.96
2019-03-21T08:22:50.798Z,25.38
2019-03-21T08:27:59.716Z,23.50
2019-03-21T08:33:08.653Z,23.31
2019-03-21T08:38:17.557Z,23.12
2019-03-21T08:43:26.429Z,22.62
2019-03-21T08:48:35.280Z,22.05
2019-03-21T08:53:44.219Z,22.76
2019-03-21T08:58:53.092Z,20.35
2019-03-21T09:04:01.995Z,18.51
2019-03-21T09:09:10.845Z,18.86
2019-03-21T09:14:19.792Z,19.65
2019-03-21T09:19:28.665Z,19.16
2019-03-21T09:24:37.559Z,18.99
2019-03-21T09:29:53.385Z,18.61
2019-03-21T09:34:54.883Z,16.70
2019-03-21T09:40:03.772Z,14.21
2019-03-21T09:45:12.632Z,14.74
2019-03-21T09:50:21.544Z,11.01
2019-03-21T09:55:30.499Z,10.14
2019-03-21T10:00:39.391Z,8.82
2019-03-21T10:05:48.333Z,8.10
2019-03-21T10:10:57.199Z,7.61
2019-03-21T10:16:06.085Z,6.92
2019-03-21T10:21:15.005Z,8.15
2019-03-21T10:26:23.948Z,7.87
2019-03-21T10:31:32.878Z,7.76
2019-03-21T10:36:41.767Z,6.86
2019-03-21T10:41:50.655Z,6.19
2019-03-21T10:46:59.589Z,6.79
2019-03-21T10:52:08.481Z,6.83
2019-03-21T10:57:17.399Z,7.31
2019-03-21T11:02:26.256Z,7.70
2019-03-21T11:07:35.155Z,7.18
2019-03-21T11:12:44.071Z,11.54
2019-03-21T11:17:53.027Z,11.38
2019-03-21T11:23:01.930Z,13.31
2019-03-21T11:28:10.836Z,10.88
2019-03-21T11:33:19.793Z,8.26
2019-03-21T11:38:28.727Z,8.67
2019-03-21T11:43:37.607Z,9.52
2019-03-21T11:48:46.542Z,9.58
2019-03-21T11:53:55.427Z,10.74
2019-03-21T11:59:04.401Z,12.89
2019-03-21T12:04:13.466Z,12.34
2019-03-21T12:09:22.390Z,12.11
2019-03-21T12:14:31.339Z,12.42
2019-03-21T12:19:40.418Z,14.71
2019-03-21T12:24:49.401Z,11.64
2019-03-21T12:29:58.312Z,9.10
2019-03-21T12:35:07.212Z,9.19
2019-03-21T12:40:16.159Z,11.07
2019-03-21T12:45:25.023Z,10.78
2019-03-21T12:50:33.930Z,12.86
2019-03-21T12:55:42.811Z,13.45
2019-03-21T13:00:51.690Z,13.10
2019-03-21T13:06:00.625Z,13.03
2019-03-21T13:11:09.659Z,12.61
2019-03-21T13:16:21.146Z,12.82
2019-03-21T13:21:20.006Z,12.87
2019-03-21T13:26:28.846Z,11.32
2019-03-21T13:31:38.766Z,10.88
2019-03-21T13:36:46.157Z,10.67
2019-03-21T13:41:55.040Z,10.23
2019-03-21T13:47:03.904Z,10.68
2019-03-21T13:52:12.887Z,9.49
2019-03-21T13:57:21.761Z,9.44
2019-03-21T14:02:30.645Z,9.30
2019-03-21T14:07:39.547Z,9.11
2019-03-21T14:12:48.461Z,8.69
2019-03-21T14:17:57.324Z,8.27
2019-03-21T14:23:16.396Z,10.93
2019-03-21T14:28:14.715Z,10.16
2019-03-21T14:33:23.629Z,9.76
2019-03-21T14:38:32.511Z,10.41
2019-03-21T14:43:41.415Z,13.12
2019-03-21T14:48:50.280Z,13.53
2019-03-21T14:53:59.236Z,11.07
2019-03-21T14:59:08.116Z,10.91
2019-03-21T15:04:17.023Z,10.08
2019-03-21T15:09:25.927Z,10.05
2019-03-21T15:14:34.841Z,10.36
2019-03-21T15:19:43.687Z,9.82
2019-03-21T15:24:52.621Z,9.50
2019-03-21T15:30:01.540Z,9.17
2019-03-21T15:35:10.415Z,8.96
2019-03-21T15:40:19.292Z,9.07
2019-03-21T15:45:28.290Z,9.15
2019-03-21T15:50:38.269Z,8.82
2019-03-21T15:55:45.628Z,8.79
2019-03-21T16:00:54.531Z,7.94
2019-03-21T16:06:03.462Z,8.12
2019-03-21T16:11:18.081Z,7.70
2019-03-21T16:16:16.929Z,7.15
2019-03-21T16:21:25.833Z,7.51
2019-03-21T16:26:36.785Z,7.09
2019-03-21T16:31:43.179Z,7.25
2019-03-21T16:36:52.147Z,7.93
2019-03-21T16:42:01.054Z,7.92
2019-03-21T16:47:09.972Z,7.43
2019-03-21T16:52:18.837Z,8.91
2019-03-21T16:57:27.719Z,7.62
2019-03-21T17:02:36.599Z,7.70
2019-03-21T17:07:45.522Z,7.96
2019-03-21T17:12:54.421Z,8.07
2019-03-21T17:18:03.330Z,7.28
2019-03-21T17:23:12.265Z,7.58
2019-03-21T17:28:21.180Z,7.73
2019-03-21T17:33:30.048Z,7.31
2019-03-21T17:38:39.072Z,6.81
2019-03-21T17:43:47.932Z,6.90
2019-03-21T17:48:56.847Z,6.83
2019-03-21T17:54:05.751Z,7.26
2019-03-21T17:59:14.789Z,7.59
2019-03-21T18:04:23.811Z,7.28
2019-03-21T18:09:32.714Z,7.15
2019-03-21T18:14:41.641Z,6.66
2019-03-21T18:19:50.499Z,7.06
2019-03-21T18:24:59.341Z,7.44
2019-03-21T18:30:08.297Z,7.22
2019-03-21T18:35:17.187Z,7.59
2019-03-21T18:40:26.089Z,7.17
2019-03-21T18:45:34.997Z,7.14
2019-03-21T18:50:44.013Z,7.31
2019-03-21T18:55:52.868Z,7.45
2019-03-21T19:01:01.840Z,7.48
2019-03-21T19:06:10.708Z,7.36
2019-03-21T19:11:19.617Z,8.17
2019-03-21T19:16:28.461Z,8.38
2019-03-21T19:21:37.384Z,7.57
2019-03-21T19:26:46.271Z,8.57
2019-03-21T19:31:55.163Z,7.98
2019-03-21T19:37:04.036Z,8.57
2019-03-21T19:42:12.950Z,8.60
2019-03-21T19:47:24.950Z,9.33
2019-03-21T19:52:30.319Z,9.48
2019-03-21T19:57:39.171Z,9.64
2019-03-21T20:02:48.126Z,9.48
2019-03-21T20:07:56.951Z,10.01
2019-03-21T20:13:05.913Z,9.29
2019-03-21T20:18:14.839Z,9.86
2019-03-21T20:23:23.771Z,11.11
2019-03-21T20:28:32.682Z,12.62
2019-03-21T20:33:41.639Z,19.67
2019-03-21T20:38:50.517Z,18.06
2019-03-21T20:43:59.446Z,19.28
2019-03-21T20:49:08.376Z,19.15
2019-03-21T20:54:17.245Z,19.42
2019-03-21T20:59:26.140Z,20.95
2019-03-21T21:04:35.076Z,21.91
2019-03-21T21:09:43.986Z,22.30
2019-03-21T21:14:52.905Z,23.61
2019-03-21T21:20:01.803Z,22.73
2019-03-21T21:25:10.781Z,23.70
2019-03-21T21:30:19.655Z,24.42
2019-03-21T21:35:28.554Z,27.18
2019-03-21T21:40:37.415Z,25.24
2019-03-21T21:45:46.376Z,27.23
2019-03-21T21:50:55.271Z,25.61
2019-03-21T21:56:04.199Z,28.52
2019-03-21T22:01:13.084Z,28.64
2019-03-21T22:06:22.620Z,30.80
2019-03-21T22:11:33.008Z,30.48
2019-03-21T22:16:31.984Z,29.62
2019-03-21T22:21:40.894Z,31.46
2019-03-21T22:26:49.839Z,30.03
2019-03-21T22:31:58.722Z,30.52
2019-03-21T22:37:07.617Z,31.66
2019-03-21T22:42:16.517Z,31.41
2019-03-21T22:47:25.458Z,31.96
2019-03-21T22:52:34.328Z,33.15
2019-03-21T22:57:43.285Z,35.16
2019-03-21T23:02:52.213Z,36.42
2019-03-21T23:08:01.033Z,37.08
2019-03-21T23:13:09.912Z,40.05
2019-03-21T23:18:18.988Z,39.77
2019-03-21T23:23:27.871Z,39.70
2019-03-21T23:28:36.748Z,40.78
2019-03-21T23:33:45.631Z,41.17
2019-03-21T23:38:54.698Z,42.76
2019-03-21T23:44:03.619Z,43.83
2019-03-21T23:49:12.569Z,43.64
2019-03-21T23:54:21.451Z,42.78
2019-03-21T23:59:30.434Z,45.86
